Terminal Aerodrome Forecast
Issued by NWS Duluth, MN

Home | Current Version | Previous Version | Text Only | Print | Product List | Glossary On
Versions: 1 2 3 4 5 6 7 8 9 10 11 12 13 14 15 16 17 18 19 20 21 22 23 24 25 26 27
000
FTUS43 KDLH 222333
TAFDLH
TAF
KDLH 222333Z 2300/2324 13007KT P6SM SCT070
      TEMPO 2300/2301 6SM -TSRA SCT020 BKN035CB
     FM230500 VRB04KT 5SM BR SCT005 SCT050
      TEMPO 2306/2310 2SM BR
     FM231200 34005KT P6SM SCT015 BKN025
     FM231600 03008KT P6SM BKN040
     FM232000 08008KT P6SM SCT015 SCT040=

USA.gov is the U.S. government's official web portal to all federal, state and local government web resources and services.